sensor_id;sensor_type;location;lat;lon;timestamp;pressure;altitude;pressure_sealevel;temperature;humidity
3812;BME280;1921;49.368;11.068;2023-02-12T00:00:44;99520.03;;;6.08;76.76
3812;BME280;1921;49.368;11.068;2023-02-12T00:03:10;99558.19;;;6.32;76.95
3812;BME280;1921;49.368;11.068;2023-02-12T00:05:39;99647.84;;;6.74;77.53
3812;BME280;1921;49.368;11.068;2023-02-12T00:08:07;99569.50;;;6.31;77.35
3812;BME280;1921;49.368;11.068;2023-02-12T00:10:33;99637.34;;;6.75;77.57
3812;BME280;1921;49.368;11.068;2023-02-12T00:12:59;99561.44;;;6.35;76.97
3812;BME280;1921;49.368;11.068;2023-02-12T00:15:25;99464.88;;;5.81;77.50
3812;BME280;1921;49.368;11.068;2023-02-12T00:17:51;99588.47;;;6.44;77.58
3812;BME280;1921;49.368;11.068;2023-02-12T00:20:17;99588.38;;;6.45;78.05
3812;BME280;1921;49.368;11.068;2023-02-12T00:22:42;99485.91;;;5.89;78.77
3812;BME280;1921;49.368;11.068;2023-02-12T00:25:08;99565.88;;;6.33;78.76
3812;BME280;1921;49.368;11.068;2023-02-12T00:27:35;99541.50;;;6.10;78.32
3812;BME280;1921;49.368;11.068;2023-02-12T00:30:01;99573.03;;;6.30;77.89
3812;BME280;1921;49.368;11.068;2023-02-12T00:32:27;99572.81;;;6.33;78.37
3812;BME280;1921;49.368;11.068;2023-02-12T00:34:52;99619.31;;;6.61;78.57
3812;BME280;1921;49.368;11.068;2023-02-12T00:37:18;99615.78;;;6.62;77.87
3812;BME280;1921;49.368;11.068;2023-02-12T00:39:44;99583.41;;;6.42;77.97
3812;BME280;1921;49.368;11.068;2023-02-12T00:42:10;99585.28;;;6.40;77.91
3812;BME280;1921;49.368;11.068;2023-02-12T00:44:36;99618.78;;;6.56;77.98
3812;BME280;1921;49.368;11.068;2023-02-12T00:47:03;99561.84;;;6.29;77.75
3812;BME280;1921;49.368;11.068;2023-02-12T00:49:30;99580.28;;;6.37;77.89
3812;BME280;1921;49.368;11.068;2023-02-12T00:52:02;99607.16;;;6.49;78.63
3812;BME280;1921;49.368;11.068;2023-02-12T00:54:30;99554.78;;;6.18;77.73
3812;BME280;1921;49.368;11.068;2023-02-12T00:56:56;99591.91;;;6.44;77.80
3812;BME280;1921;49.368;11.068;2023-02-12T00:59:24;99570.44;;;6.30;77.85
3812;BME280;1921;49.368;11.068;2023-02-12T01:01:53;99596.56;;;6.39;77.72
3812;BME280;1921;49.368;11.068;2023-02-12T01:04:20;99577.91;;;6.22;78.47
3812;BME280;1921;49.368;11.068;2023-02-12T01:06:46;99561.06;;;6.14;78.53
3812;BME280;1921;49.368;11.068;2023-02-12T01:09:12;99583.69;;;6.25;78.22
3812;BME280;1921;49.368;11.068;2023-02-12T01:11:38;99586.09;;;6.28;78.65
3812;BME280;1921;49.368;11.068;2023-02-12T01:14:04;99633.31;;;6.59;78.43
3812;BME280;1921;49.368;11.068;2023-02-12T01:16:30;99615.66;;;6.51;79.37
3812;BME280;1921;49.368;11.068;2023-02-12T01:19:01;99561.00;;;6.16;78.97
3812;BME280;1921;49.368;11.068;2023-02-12T01:21:32;99629.44;;;6.52;79.35
3812;BME280;1921;49.368;11.068;2023-02-12T01:24:00;99535.56;;;5.96;79.41
3812;BME280;1921;49.368;11.068;2023-02-12T01:26:27;99620.84;;;6.51;80.13
3812;BME280;1921;49.368;11.068;2023-02-12T01:29:02;99589.19;;;6.33;80.26
3812;BME280;1921;49.368;11.068;2023-02-12T01:31:32;99611.22;;;6.53;80.32
3812;BME280;1921;49.368;11.068;2023-02-12T01:33:59;99600.50;;;6.45;79.83
3812;BME280;1921;49.368;11.068;2023-02-12T01:36:27;99574.69;;;6.31;79.89
3812;BME280;1921;49.368;11.068;2023-02-12T01:38:53;99579.47;;;6.37;80.65
3812;BME280;1921;49.368;11.068;2023-02-12T01:41:25;99606.03;;;6.53;80.67
3812;BME280;1921;49.368;11.068;2023-02-12T01:44:18;99616.91;;;6.58;81.72
3812;BME280;1921;49.368;11.068;2023-02-12T01:46:55;99577.91;;;6.22;82.15
3812;BME280;1921;49.368;11.068;2023-02-12T01:49:40;99594.31;;;6.47;82.41
3812;BME280;1921;49.368;11.068;2023-02-12T01:54:39;99557.59;;;6.15;82.27
3812;BME280;1921;49.368;11.068;2023-02-12T01:57:07;99578.63;;;6.36;81.95
3812;BME280;1921;49.368;11.068;2023-02-12T01:59:35;99556.53;;;6.18;81.89
3812;BME280;1921;49.368;11.068;2023-02-12T02:02:03;99559.75;;;6.22;82.39
3812;BME280;1921;49.368;11.068;2023-02-12T02:04:42;99562.44;;;6.20;81.78
3812;BME280;1921;49.368;11.068;2023-02-12T02:07:11;99581.75;;;6.29;82.07
3812;BME280;1921;49.368;11.068;2023-02-12T02:09:38;99589.66;;;6.40;81.53
3812;BME280;1921;49.368;11.068;2023-02-12T02:12:06;99558.06;;;6.20;82.62
3812;BME280;1921;49.368;11.068;2023-02-12T02:14:53;99626.97;;;6.63;82.17
3812;BME280;1921;49.368;11.068;2023-02-12T02:17:48;99622.09;;;6.58;82.59
3812;BME280;1921;49.368;11.068;2023-02-12T02:20:40;99559.22;;;6.16;82.78
3812;BME280;1921;49.368;11.068;2023-02-12T02:27:01;99623.03;;;6.57;82.25
3812;BME280;1921;49.368;11.068;2023-02-12T02:29:46;99626.53;;;6.56;82.81
3812;BME280;1921;49.368;11.068;2023-02-12T02:32:26;99603.31;;;6.42;82.29
3812;BME280;1921;49.368;11.068;2023-02-12T02:35:20;99593.75;;;6.30;82.15
3812;BME280;1921;49.368;11.068;2023-02-12T02:38:27;99621.59;;;6.53;82.09
3812;BME280;1921;49.368;11.068;2023-02-12T02:41:07;99608.69;;;6.39;81.76
3812;BME280;1921;49.368;11.068;2023-02-12T02:43:43;99537.03;;;6.00;81.58
3812;BME280;1921;49.368;11.068;2023-02-12T02:46:31;99581.31;;;6.22;81.26
3812;BME280;1921;49.368;11.068;2023-02-12T02:49:10;99582.03;;;6.24;81.96
3812;BME280;1921;49.368;11.068;2023-02-12T02:51:45;99610.97;;;6.43;82.05
3812;BME280;1921;49.368;11.068;2023-02-12T02:54:26;99612.44;;;6.35;82.13
3812;BME280;1921;49.368;11.068;2023-02-12T02:57:13;99568.22;;;5.98;81.63
3812;BME280;1921;49.368;11.068;2023-02-12T02:59:43;99590.34;;;6.29;82.00
3812;BME280;1921;49.368;11.068;2023-02-12T03:02:19;99592.28;;;6.26;81.75
3812;BME280;1921;49.368;11.068;2023-02-12T03:04:54;99569.66;;;6.02;81.65
3812;BME280;1921;49.368;11.068;2023-02-12T03:07:35;99561.44;;;5.96;81.26
3812;BME280;1921;49.368;11.068;2023-02-12T03:10:24;99558.47;;;6.02;81.59
3812;BME280;1921;49.368;11.068;2023-02-12T03:13:06;99548.44;;;5.83;81.56
3812;BME280;1921;49.368;11.068;2023-02-12T03:18:18;99589.53;;;6.02;82.76
3812;BME280;1921;49.368;11.068;2023-02-12T03:20:51;99627.22;;;6.33;82.83
3812;BME280;1921;49.368;11.068;2023-02-12T03:23:27;99604.81;;;6.19;82.38
3812;BME280;1921;49.368;11.068;2023-02-12T03:26:03;99555.31;;;5.84;82.41
3812;BME280;1921;49.368;11.068;2023-02-12T03:28:34;99576.16;;;5.95;82.32
3812;BME280;1921;49.368;11.068;2023-02-12T03:34:32;99653.66;;;6.38;82.65
3812;BME280;1921;49.368;11.068;2023-02-12T03:37:09;99659.69;;;6.38;82.09
3812;BME280;1921;49.368;11.068;2023-02-12T03:43:01;99660.47;;;6.26;82.91
3812;BME280;1921;49.368;11.068;2023-02-12T03:45:55;99668.19;;;6.28;82.62
3812;BME280;1921;49.368;11.068;2023-02-12T03:48:45;99666.41;;;6.28;82.85
3812;BME280;1921;49.368;11.068;2023-02-12T03:51:16;99657.06;;;6.26;82.72
3812;BME280;1921;49.368;11.068;2023-02-12T03:53:45;99650.50;;;6.20;83.05
3812;BME280;1921;49.368;11.068;2023-02-12T03:56:23;99661.41;;;6.25;83.33
3812;BME280;1921;49.368;11.068;2023-02-12T03:58:50;99649.06;;;6.16;83.31
3812;BME280;1921;49.368;11.068;2023-02-12T04:01:16;99658.69;;;6.14;83.00
3812;BME280;1921;49.368;11.068;2023-02-12T04:03:42;99572.22;;;5.75;83.02
3812;BME280;1921;49.368;11.068;2023-02-12T04:06:26;99586.25;;;5.85;82.64
3812;BME280;1921;49.368;11.068;2023-02-12T04:08:57;99618.38;;;6.10;82.58
3812;BME280;1921;49.368;11.068;2023-02-12T04:11:46;99677.81;;;6.38;82.79
3812;BME280;1921;49.368;11.068;2023-02-12T04:14:54;99669.31;;;6.36;82.79
3812;BME280;1921;49.368;11.068;2023-02-12T04:23:44;99622.47;;;6.00;83.15
3812;BME280;1921;49.368;11.068;2023-02-12T04:32:25;99640.44;;;6.03;83.77
3812;BME280;1921;49.368;11.068;2023-02-12T04:35:14;99674.66;;;6.20;83.73
3812;BME280;1921;49.368;11.068;2023-02-12T04:37:50;99597.88;;;5.65;83.86
3812;BME280;1921;49.368;11.068;2023-02-12T04:40:20;99685.34;;;6.16;84.08
3812;BME280;1921;49.368;11.068;2023-02-12T04:42:51;99624.13;;;5.74;84.31
3812;BME280;1921;49.368;11.068;2023-02-12T04:45:37;99602.97;;;5.67;84.82
3812;BME280;1921;49.368;11.068;2023-02-12T04:48:04;99657.63;;;5.89;84.87
3812;BME280;1921;49.368;11.068;2023-02-12T04:50:48;99629.28;;;5.74;84.75
3812;BME280;1921;49.368;11.068;2023-02-12T04:53:14;99626.88;;;5.71;85.29
3812;BME280;1921;49.368;11.068;2023-02-12T04:55:40;99661.44;;;5.84;85.87
3812;BME280;1921;49.368;11.068;2023-02-12T04:58:06;99666.53;;;5.85;86.55
3812;BME280;1921;49.368;11.068;2023-02-12T05:00:32;99620.91;;;5.56;86.88
3812;BME280;1921;49.368;11.068;2023-02-12T05:02:58;99645.19;;;5.67;86.89
3812;BME280;1921;49.368;11.068;2023-02-12T05:05:24;99669.84;;;5.87;86.66
3812;BME280;1921;49.368;11.068;2023-02-12T05:07:50;99668.84;;;5.76;86.93
3812;BME280;1921;49.368;11.068;2023-02-12T05:10:16;99617.53;;;5.41;87.59
3812;BME280;1921;49.368;11.068;2023-02-12T05:12:41;99639.84;;;5.56;87.74
3812;BME280;1921;49.368;11.068;2023-02-12T05:15:07;99632.69;;;5.47;88.14
3812;BME280;1921;49.368;11.068;2023-02-12T05:17:33;99632.31;;;5.39;87.95
3812;BME280;1921;49.368;11.068;2023-02-12T05:19:59;99630.25;;;5.44;87.77
3812;BME280;1921;49.368;11.068;2023-02-12T05:22:25;99648.72;;;5.52;87.39
3812;BME280;1921;49.368;11.068;2023-02-12T05:24:50;99664.44;;;5.63;87.67
3812;BME280;1921;49.368;11.068;2023-02-12T05:27:16;99629.44;;;5.44;87.68
3812;BME280;1921;49.368;11.068;2023-02-12T05:29:42;99625.28;;;5.41;87.58
3812;BME280;1921;49.368;11.068;2023-02-12T05:32:08;99672.84;;;5.67;87.57
3812;BME280;1921;49.368;11.068;2023-02-12T05:34:34;99623.09;;;5.35;87.58
3812;BME280;1921;49.368;11.068;2023-02-12T05:37:00;99647.44;;;5.45;87.89
3812;BME280;1921;49.368;11.068;2023-02-12T05:39:25;99630.47;;;5.27;87.42
3812;BME280;1921;49.368;11.068;2023-02-12T05:41:51;99628.16;;;5.08;89.11
3812;BME280;1921;49.368;11.068;2023-02-12T05:44:17;99611.28;;;4.88;88.99
3812;BME280;1921;49.368;11.068;2023-02-12T05:46:43;99684.50;;;5.31;89.48
3812;BME280;1921;49.368;11.068;2023-02-12T05:49:09;99652.63;;;5.02;90.01
3812;BME280;1921;49.368;11.068;2023-02-12T05:51:35;99652.63;;;5.02;89.71
3812;BME280;1921;49.368;11.068;2023-02-12T05:54:04;99652.94;;;4.98;90.47
3812;BME280;1921;49.368;11.068;2023-02-12T05:56:42;99647.91;;;4.95;90.54
3812;BME280;1921;49.368;11.068;2023-02-12T05:59:15;99651.25;;;4.97;90.66
3812;BME280;1921;49.368;11.068;2023-02-12T06:01:44;99679.72;;;5.11;90.67
3812;BME280;1921;49.368;11.068;2023-02-12T06:04:16;99721.91;;;5.40;91.15
3812;BME280;1921;49.368;11.068;2023-02-12T06:06:43;99689.44;;;5.22;91.07
3812;BME280;1921;49.368;11.068;2023-02-12T06:09:10;99686.19;;;5.18;91.06
3812;BME280;1921;49.368;11.068;2023-02-12T06:11:37;99694.19;;;5.28;91.33
3812;BME280;1921;49.368;11.068;2023-02-12T06:14:05;99679.25;;;5.19;90.83
3812;BME280;1921;49.368;11.068;2023-02-12T06:16:33;99723.25;;;5.47;90.92
3812;BME280;1921;49.368;11.068;2023-02-12T06:19:02;99633.50;;;4.76;91.36
3812;BME280;1921;49.368;11.068;2023-02-12T06:21:28;99679.34;;;5.17;90.91
3812;BME280;1921;49.368;11.068;2023-02-12T06:23:54;99738.56;;;5.50;91.00
3812;BME280;1921;49.368;11.068;2023-02-12T06:26:21;99652.94;;;5.12;91.22
3812;BME280;1921;49.368;11.068;2023-02-12T06:28:47;99697.63;;;5.43;91.19
3812;BME280;1921;49.368;11.068;2023-02-12T06:31:35;99667.50;;;5.27;91.00
3812;BME280;1921;49.368;11.068;2023-02-12T06:34:04;99682.59;;;5.35;91.64
3812;BME280;1921;49.368;11.068;2023-02-12T06:36:31;99718.06;;;5.61;91.37
3812;BME280;1921;49.368;11.068;2023-02-12T06:38:59;99652.28;;;5.23;90.90
3812;BME280;1921;49.368;11.068;2023-02-12T06:41:25;99721.56;;;5.60;91.38
3812;BME280;1921;49.368;11.068;2023-02-12T06:43:50;99716.66;;;5.56;91.04
3812;BME280;1921;49.368;11.068;2023-02-12T06:46:16;99728.03;;;5.67;90.77
3812;BME280;1921;49.368;11.068;2023-02-12T06:48:42;99697.38;;;5.47;90.48
3812;BME280;1921;49.368;11.068;2023-02-12T06:51:14;99747.16;;;5.79;90.69
3812;BME280;1921;49.368;11.068;2023-02-12T06:53:40;99712.03;;;5.61;90.83
3812;BME280;1921;49.368;11.068;2023-02-12T06:56:08;99711.94;;;5.62;90.83
3812;BME280;1921;49.368;11.068;2023-02-12T06:58:37;99707.97;;;5.57;91.04
3812;BME280;1921;49.368;11.068;2023-02-12T07:01:18;99700.03;;;5.60;90.85
3812;BME280;1921;49.368;11.068;2023-02-12T07:03:59;99718.13;;;5.74;91.39
3812;BME280;1921;49.368;11.068;2023-02-12T07:06:33;99713.59;;;5.78;90.88
3812;BME280;1921;49.368;11.068;2023-02-12T07:09:01;99707.50;;;5.79;91.11
3812;BME280;1921;49.368;11.068;2023-02-12T07:11:30;99733.09;;;5.98;90.86
3812;BME280;1921;49.368;11.068;2023-02-12T07:13:57;99760.16;;;6.20;90.88
3812;BME280;1921;49.368;11.068;2023-02-12T07:16:23;99725.91;;;6.03;91.31
3812;BME280;1921;49.368;11.068;2023-02-12T07:18:48;99747.00;;;6.24;91.05
3812;BME280;1921;49.368;11.068;2023-02-12T07:21:15;99714.66;;;6.16;90.39
3812;BME280;1921;49.368;11.068;2023-02-12T07:23:46;99713.91;;;6.14;90.30
3812;BME280;1921;49.368;11.068;2023-02-12T07:26:12;99712.06;;;6.16;90.26
3812;BME280;1921;49.368;11.068;2023-02-12T07:28:39;99690.06;;;6.09;89.19
3812;BME280;1921;49.368;11.068;2023-02-12T07:31:16;99733.63;;;6.44;89.20
3812;BME280;1921;49.368;11.068;2023-02-12T07:33:43;99751.63;;;6.60;89.01
3812;BME280;1921;49.368;11.068;2023-02-12T07:36:14;99745.06;;;6.54;88.50
3812;BME280;1921;49.368;11.068;2023-02-12T07:38:41;99707.94;;;6.27;87.91
3812;BME280;1921;49.368;11.068;2023-02-12T07:41:09;99689.28;;;6.22;88.32
3812;BME280;1921;49.368;11.068;2023-02-12T07:43:38;99738.25;;;6.66;87.89
3812;BME280;1921;49.368;11.068;2023-02-12T07:46:15;99730.16;;;6.70;87.24
3812;BME280;1921;49.368;11.068;2023-02-12T07:48:42;99669.88;;;6.41;86.94
3812;BME280;1921;49.368;11.068;2023-02-12T07:51:12;99718.13;;;6.69;87.05
3812;BME280;1921;49.368;11.068;2023-02-12T07:53:38;99682.59;;;6.44;85.98
3812;BME280;1921;49.368;11.068;2023-02-12T07:56:10;99703.63;;;6.67;86.83
3812;BME280;1921;49.368;11.068;2023-02-12T07:58:37;99723.88;;;6.87;86.65
3812;BME280;1921;49.368;11.068;2023-02-12T08:01:35;99764.16;;;7.18;85.85
3812;BME280;1921;49.368;11.068;2023-02-12T08:04:05;99704.75;;;6.63;85.66
3812;BME280;1921;49.368;11.068;2023-02-12T08:06:35;99730.31;;;6.94;85.96
3812;BME280;1921;49.368;11.068;2023-02-12T08:09:08;99692.63;;;6.76;85.89
3812;BME280;1921;49.368;11.068;2023-02-12T08:11:36;99757.75;;;7.24;86.13
3812;BME280;1921;49.368;11.068;2023-02-12T08:14:03;99690.84;;;6.77;85.58
3812;BME280;1921;49.368;11.068;2023-02-12T08:16:29;99728.25;;;6.99;85.72
3812;BME280;1921;49.368;11.068;2023-02-12T08:18:57;99739.34;;;7.01;85.86
3812;BME280;1921;49.368;11.068;2023-02-12T08:21:26;99779.00;;;6.37;89.99
3812;BME280;1921;49.368;11.068;2023-02-12T08:23:58;99767.78;;;5.81;94.81
3812;BME280;1921;49.368;11.068;2023-02-12T08:26:34;99723.78;;;5.24;97.54
3812;BME280;1921;49.368;11.068;2023-02-12T08:31:36;99757.88;;;5.59;98.55
3812;BME280;1921;49.368;11.068;2023-02-12T08:34:03;99786.81;;;6.08;97.42
3812;BME280;1921;49.368;11.068;2023-02-12T08:36:36;99768.56;;;6.51;96.56
3812;BME280;1921;49.368;11.068;2023-02-12T08:39:06;99738.41;;;6.90;95.13
3812;BME280;1921;49.368;11.068;2023-02-12T08:41:33;99751.13;;;7.45;93.48
3812;BME280;1921;49.368;11.068;2023-02-12T08:44:03;99688.47;;;7.50;91.34
3812;BME280;1921;49.368;11.068;2023-02-12T08:46:35;99711.53;;;8.04;88.65
3812;BME280;1921;49.368;11.068;2023-02-12T08:49:04;99733.16;;;8.41;85.93
3812;BME280;1921;49.368;11.068;2023-02-12T08:51:33;99746.28;;;7.90;82.56
3812;BME280;1921;49.368;11.068;2023-02-12T08:54:04;99776.28;;;8.44;82.58
3812;BME280;1921;49.368;11.068;2023-02-12T08:56:32;99714.97;;;8.28;80.13
3812;BME280;1921;49.368;11.068;2023-02-12T08:59:00;99706.06;;;8.44;80.17
3812;BME280;1921;49.368;11.068;2023-02-12T09:01:29;99715.63;;;8.67;80.12
3812;BME280;1921;49.368;11.068;2023-02-12T09:03:55;99729.44;;;8.92;80.05
3812;BME280;1921;49.368;11.068;2023-02-12T09:06:25;99726.66;;;9.17;79.40
3812;BME280;1921;49.368;11.068;2023-02-12T09:08:52;99736.16;;;9.40;79.58
3812;BME280;1921;49.368;11.068;2023-02-12T09:11:24;99765.06;;;9.82;78.62
3812;BME280;1921;49.368;11.068;2023-02-12T09:14:02;99753.06;;;9.91;77.68
3812;BME280;1921;49.368;11.068;2023-02-12T09:16:31;99782.66;;;10.12;72.55
3812;BME280;1921;49.368;11.068;2023-02-12T09:18:57;99732.72;;;9.51;73.43
3812;BME280;1921;49.368;11.068;2023-02-12T09:21:23;99730.97;;;9.63;73.86
3812;BME280;1921;49.368;11.068;2023-02-12T09:23:50;99743.75;;;9.88;74.41
3812;BME280;1921;49.368;11.068;2023-02-12T09:26:20;99740.59;;;10.06;72.00
3812;BME280;1921;49.368;11.068;2023-02-12T09:28:47;99738.72;;;8.72;77.80
3812;BME280;1921;49.368;11.068;2023-02-12T09:31:25;99731.28;;;9.13;75.73
3812;BME280;1921;49.368;11.068;2023-02-12T09:34:03;99761.72;;;9.80;74.84
3812;BME280;1921;49.368;11.068;2023-02-12T09:36:31;99796.41;;;9.47;76.70
3812;BME280;1921;49.368;11.068;2023-02-12T09:38:57;99771.91;;;9.61;75.71
3812;BME280;1921;49.368;11.068;2023-02-12T09:44:39;99788.03;;;10.65;71.04
3812;BME280;1921;49.368;11.068;2023-02-12T09:50:21;99787.31;;;10.74;69.59
3812;BME280;1921;49.368;11.068;2023-02-12T09:52:52;99777.78;;;10.41;69.66
3812;BME280;1921;49.368;11.068;2023-02-12T09:55:28;99772.84;;;10.27;71.08
3812;BME280;1921;49.368;11.068;2023-02-12T09:57:54;99721.84;;;10.34;71.40
3812;BME280;1921;49.368;11.068;2023-02-12T10:00:31;99758.72;;;10.73;70.61
3812;BME280;1921;49.368;11.068;2023-02-12T10:03:02;99782.25;;;11.15;70.62
3812;BME280;1921;49.368;11.068;2023-02-12T10:05:34;99759.13;;;10.03;70.49
3812;BME280;1921;49.368;11.068;2023-02-12T10:20:26;99811.00;;;6.77;98.07
3812;BME280;1921;49.368;11.068;2023-02-12T10:25:56;99748.47;;;6.55;95.31
3812;BME280;1921;49.368;11.068;2023-02-12T10:28:39;99768.75;;;7.40;92.98
3812;BME280;1921;49.368;11.068;2023-02-12T10:31:31;99760.06;;;6.49;96.87
3812;BME280;1921;49.368;11.068;2023-02-12T10:33:58;99780.44;;;7.08;94.48
3812;BME280;1921;49.368;11.068;2023-02-12T10:36:44;99795.72;;;7.89;91.56
3812;BME280;1921;49.368;11.068;2023-02-12T10:39:12;99809.44;;;8.53;89.52
3812;BME280;1921;49.368;11.068;2023-02-12T10:41:54;99770.63;;;8.50;85.60
3812;BME280;1921;49.368;11.068;2023-02-12T10:44:20;99785.59;;;8.83;84.75
3812;BME280;1921;49.368;11.068;2023-02-12T10:46:46;99798.19;;;9.47;82.95
3812;BME280;1921;49.368;11.068;2023-02-12T10:49:15;99782.94;;;9.76;81.48
3812;BME280;1921;49.368;11.068;2023-02-12T10:54:47;99732.34;;;9.22;78.04
3812;BME280;1921;49.368;11.068;2023-02-12T10:57:25;99750.63;;;8.02;86.13
3812;BME280;1921;49.368;11.068;2023-02-12T10:59:55;99753.03;;;7.93;87.93
3812;BME280;1921;49.368;11.068;2023-02-12T11:02:27;99710.41;;;7.46;89.84
3812;BME280;1921;49.368;11.068;2023-02-12T11:04:55;99781.88;;;8.14;87.85
3812;BME280;1921;49.368;11.068;2023-02-12T11:07:22;99796.06;;;8.33;86.89
3812;BME280;1921;49.368;11.068;2023-02-12T11:09:52;99770.72;;;7.37;90.02
3812;BME280;1921;49.368;11.068;2023-02-12T11:12:35;99756.22;;;6.82;94.27
3812;BME280;1921;49.368;11.068;2023-02-12T11:15:21;99770.34;;;6.78;96.37
3812;BME280;1921;49.368;11.068;2023-02-12T11:18:00;99771.25;;;6.77;96.72
3812;BME280;1921;49.368;11.068;2023-02-12T11:20:48;99752.13;;;7.17;93.71
3812;BME280;1921;49.368;11.068;2023-02-12T11:23:33;99799.38;;;7.73;91.13
3812;BME280;1921;49.368;11.068;2023-02-12T11:28:35;99785.81;;;8.56;85.03
3812;BME280;1921;49.368;11.068;2023-02-12T11:31:22;99788.88;;;9.09;84.12
3812;BME280;1921;49.368;11.068;2023-02-12T11:34:17;99808.13;;;9.41;81.57
3812;BME280;1921;49.368;11.068;2023-02-12T11:36:50;99763.16;;;9.51;80.20
3812;BME280;1921;49.368;11.068;2023-02-12T11:41:58;99746.44;;;9.87;77.65
3812;BME280;1921;49.368;11.068;2023-02-12T11:44:37;99761.47;;;10.06;75.37
3812;BME280;1921;49.368;11.068;2023-02-12T11:47:10;99769.88;;;10.09;76.19
3812;BME280;1921;49.368;11.068;2023-02-12T11:49:58;99714.19;;;9.99;75.46
3812;BME280;1921;49.368;11.068;2023-02-12T11:52:31;99774.69;;;10.47;74.08
3812;BME280;1921;49.368;11.068;2023-02-12T11:55:02;99736.84;;;10.53;71.51
3812;BME280;1921;49.368;11.068;2023-02-12T11:57:47;99766.41;;;10.42;70.25
3812;BME280;1921;49.368;11.068;2023-02-12T12:00:45;99751.28;;;10.14;71.78
3812;BME280;1921;49.368;11.068;2023-02-12T12:03:35;99761.09;;;10.76;71.60
3812;BME280;1921;49.368;11.068;2023-02-12T12:09:12;99778.00;;;11.14;68.73
3812;BME280;1921;49.368;11.068;2023-02-12T12:11:49;99779.03;;;9.59;76.76
3812;BME280;1921;49.368;11.068;2023-02-12T12:14:57;99782.44;;;9.93;74.35
3812;BME280;1921;49.368;11.068;2023-02-12T12:17:49;99770.91;;;10.51;73.14
3812;BME280;1921;49.368;11.068;2023-02-12T12:20:46;99715.81;;;9.57;75.38
3812;BME280;1921;49.368;11.068;2023-02-12T12:26:48;99739.94;;;10.79;72.54
3812;BME280;1921;49.368;11.068;2023-02-12T12:29:56;99758.75;;;11.66;69.66
3812;BME280;1921;49.368;11.068;2023-02-12T12:32:25;99695.19;;;11.66;68.01
3812;BME280;1921;49.368;11.068;2023-02-12T12:34:54;99734.19;;;12.28;66.45
3812;BME280;1921;49.368;11.068;2023-02-12T12:37:28;99722.09;;;12.47;63.60
3812;BME280;1921;49.368;11.068;2023-02-12T12:48:47;99752.72;;;13.61;59.23
3812;BME280;1921;49.368;11.068;2023-02-12T12:57:42;99745.53;;;13.63;56.42
3812;BME280;1921;49.368;11.068;2023-02-12T13:18:03;99679.94;;;14.36;57.37
3812;BME280;1921;49.368;11.068;2023-02-12T13:20:54;99729.47;;;15.36;54.36
3812;BME280;1921;49.368;11.068;2023-02-12T13:27:03;99733.84;;;15.53;51.55
3812;BME280;1921;49.368;11.068;2023-02-12T13:29:39;99685.72;;;15.01;50.63
3812;BME280;1921;49.368;11.068;2023-02-12T13:32:22;99742.69;;;12.11;61.90
3812;BME280;1921;49.368;11.068;2023-02-12T13:34:52;99701.44;;;11.13;64.34
3812;BME280;1921;49.368;11.068;2023-02-12T13:37:44;99754.41;;;10.83;69.62
3812;BME280;1921;49.368;11.068;2023-02-12T13:40:24;99690.47;;;11.50;64.74
3812;BME280;1921;49.368;11.068;2023-02-12T13:57:10;99667.22;;;12.84;60.03
3812;BME280;1921;49.368;11.068;2023-02-12T13:59:40;99643.41;;;12.87;57.55
3812;BME280;1921;49.368;11.068;2023-02-12T14:02:40;99665.34;;;13.33;57.62
3812;BME280;1921;49.368;11.068;2023-02-12T14:05:36;99688.16;;;13.78;56.85
3812;BME280;1921;49.368;11.068;2023-02-12T14:08:04;99714.53;;;13.76;55.98
3812;BME280;1921;49.368;11.068;2023-02-12T14:10:38;99733.22;;;14.18;55.32
3812;BME280;1921;49.368;11.068;2023-02-12T14:13:21;99689.22;;;13.10;56.49
3812;BME280;1921;49.368;11.068;2023-02-12T14:15:55;99582.75;;;12.16;58.32
3812;BME280;1921;49.368;11.068;2023-02-12T14:18:34;99734.13;;;13.44;56.70
3812;BME280;1921;49.368;11.068;2023-02-12T14:23:42;99685.47;;;13.32;57.18
3812;BME280;1921;49.368;11.068;2023-02-12T14:26:19;99729.59;;;13.74;56.76
3812;BME280;1921;49.368;11.068;2023-02-12T14:29:24;99731.06;;;13.86;56.30
3812;BME280;1921;49.368;11.068;2023-02-12T14:31:45;99665.16;;;13.71;56.65
3812;BME280;1921;49.368;11.068;2023-02-12T14:36:45;99673.47;;;14.30;55.17
3812;BME280;1921;49.368;11.068;2023-02-12T14:41:51;99660.28;;;14.58;52.64
3812;BME280;1921;49.368;11.068;2023-02-12T14:47:08;99689.44;;;15.50;51.14
3812;BME280;1921;49.368;11.068;2023-02-12T14:49:51;99663.28;;;14.63;52.40
3812;BME280;1921;49.368;11.068;2023-02-12T14:52:26;99703.69;;;14.88;52.89
3812;BME280;1921;49.368;11.068;2023-02-12T14:55:06;99696.63;;;13.44;56.57
3812;BME280;1921;49.368;11.068;2023-02-12T14:57:43;99695.75;;;13.81;55.78
3812;BME280;1921;49.368;11.068;2023-02-12T15:03:39;99689.81;;;11.27;65.12
3812;BME280;1921;49.368;11.068;2023-02-12T15:06:23;99709.47;;;11.92;63.95
3812;BME280;1921;49.368;11.068;2023-02-12T15:08:57;99683.41;;;13.16;60.45
3812;BME280;1921;49.368;11.068;2023-02-12T15:14:26;99654.75;;;13.52;55.92
3812;BME280;1921;49.368;11.068;2023-02-12T15:17:06;99710.03;;;13.68;59.55
3812;BME280;1921;49.368;11.068;2023-02-12T15:19:46;99697.16;;;15.18;52.65
3812;BME280;1921;49.368;11.068;2023-02-12T15:22:35;99669.06;;;15.78;50.95
3812;BME280;1921;49.368;11.068;2023-02-12T15:28:17;99643.66;;;16.36;48.06
3812;BME280;1921;49.368;11.068;2023-02-12T15:30:43;99639.34;;;16.27;48.36
3812;BME280;1921;49.368;11.068;2023-02-12T15:33:26;99680.13;;;16.06;49.50
3812;BME280;1921;49.368;11.068;2023-02-12T15:35:52;99649.19;;;15.58;49.53
3812;BME280;1921;49.368;11.068;2023-02-12T15:38:37;99679.94;;;15.23;51.02
3812;BME280;1921;49.368;11.068;2023-02-12T15:41:05;99624.72;;;14.45;51.79
3812;BME280;1921;49.368;11.068;2023-02-12T15:43:33;99631.56;;;14.20;52.56
3812;BME280;1921;49.368;11.068;2023-02-12T15:46:02;99617.47;;;13.86;53.45
3812;BME280;1921;49.368;11.068;2023-02-12T15:48:33;99662.72;;;13.88;54.42
3812;BME280;1921;49.368;11.068;2023-02-12T15:51:32;99680.44;;;13.76;54.99
3812;BME280;1921;49.368;11.068;2023-02-12T15:54:00;99629.94;;;13.09;56.12
3812;BME280;1921;49.368;11.068;2023-02-12T15:56:28;99620.44;;;12.52;58.64
3812;BME280;1921;49.368;11.068;2023-02-12T15:58:58;99638.41;;;11.68;62.83
3812;BME280;1921;49.368;11.068;2023-02-12T16:01:29;99642.69;;;11.69;63.26
3812;BME280;1921;49.368;11.068;2023-02-12T16:04:02;99661.69;;;11.80;63.40
3812;BME280;1921;49.368;11.068;2023-02-12T16:06:33;99661.50;;;11.72;63.25
3812;BME280;1921;49.368;11.068;2023-02-12T16:09:27;99654.38;;;11.03;67.42